X  Schlie├čen METAR Luftfahrt Wetterdaten     EDDH Hamburg Helmut Schmidt Airport
Temperatur
2°C Temperatur
1°C Taupunkt
93% Feuchtigkeit



Wind
8 MPS
13 KM/S
4 M/S
7 KTS



140°
SO
Aktuelle Wetterlage

Klar Klar
Luftdruck 1003.05 (hPa) - 29.62 (inHg)
Sichtweite 6 (Meile) - 9.7 (Km)
Flughafen
Flughafen Code EDDH

Position : Hamburg Helmut Schmidt Airport
Entfernung: 11 (mi)

Metar:
EDDH 250250Z AUTO 14007KT CAVOK 02/01 Q1003 NOSIG

Zeit: 25-02-2024 03:50 CET